Time;durP1;ratioP1;P1;durP2;ratioP2;P2;SDS_P1;SDS_P2;PMS_P1;PMS_P2;Temp;Humidity;BMP_temperature;BMP_pressure;BME280_temperature;BME280_humidity;BME280_pressure;Samples;Min_cycle;Max_cycle;Signal;HPM_P1;HPM_P2
2023/03/06 00:01:57;;;;;;;6.35;3.22;;;2.30;99.90;;;;;;4984310;28;20049;-71
2023/03/06 00:04:23;;;;;;;6.90;3.95;;;2.30;99.90;;;;;;4981897;28;20100;-71
2023/03/06 00:06:49;;;;;;;5.75;3.38;;;2.30;99.90;;;;;;4984914;28;20439;-71
2023/03/06 00:09:15;;;;;;;7.75;4.05;;;2.30;99.90;;;;;;4985827;28;20460;-71
2023/03/06 00:11:40;;;;;;;4.35;3.22;;;2.30;99.90;;;;;;4985919;28;20137;-71
2023/03/06 00:14:06;;;;;;;12.35;3.38;;;2.30;99.90;;;;;;4985366;28;20089;-72
2023/03/06 00:16:32;;;;;;;8.35;3.70;;;2.30;99.90;;;;;;4985101;28;20058;-71
2023/03/06 00:18:57;;;;;;;5.80;3.92;;;2.30;99.90;;;;;;4982820;28;20634;-71
2023/03/06 00:21:23;;;;;;;6.28;3.80;;;2.40;99.90;;;;;;4986412;28;20070;-71
2023/03/06 00:23:49;;;;;;;10.45;3.38;;;2.40;99.90;;;;;;4986751;28;20046;-71
2023/03/06 00:26:14;;;;;;;8.88;3.58;;;2.40;99.90;;;;;;5003220;28;20430;-71
2023/03/06 00:28:40;;;;;;;11.88;3.95;;;2.40;99.90;;;;;;4986758;28;20117;-71
2023/03/06 00:31:05;;;;;;;6.25;2.97;;;2.40;99.90;;;;;;5004917;28;20473;-71
2023/03/06 00:33:34;;;;;;;15.27;5.00;;;2.40;99.90;;;;;;5001495;28;20046;-71
2023/03/06 00:36:03;;;;;;;7.22;3.72;;;2.40;99.90;;;;;;5005444;28;20136;-71
2023/03/06 00:38:32;;;;;;;5.25;3.20;;;2.40;99.90;;;;;;5003540;28;20041;-71
2023/03/06 00:40:58;;;;;;;9.10;3.85;;;2.40;99.90;;;;;;4970156;28;20129;-71
2023/03/06 00:43:24;;;;;;;7.13;3.60;;;2.40;99.90;;;;;;5005175;28;20168;-71
2023/03/06 00:45:49;;;;;;;8.18;3.92;;;2.40;99.90;;;;;;5004165;28;20406;-71
2023/03/06 00:48:15;;;;;;;6.07;3.38;;;2.40;99.90;;;;;;5001515;28;20804;-71
2023/03/06 00:50:41;;;;;;;5.85;3.38;;;2.40;99.90;;;;;;4986725;28;20564;-71
2023/03/06 00:53:06;;;;;;;7.10;3.90;;;2.40;99.90;;;;;;5002391;28;20493;-71
2023/03/06 00:55:32;;;;;;;12.75;4.03;;;2.40;99.90;;;;;;4987680;28;20046;-71
2023/03/06 00:57:58;;;;;;;11.35;4.03;;;2.40;99.90;;;;;;5004562;28;20054;-71
2023/03/06 01:00:23;;;;;;;11.32;4.80;;;2.50;99.90;;;;;;5006739;28;20034;-71
2023/03/06 01:02:50;;;;;;;14.00;4.53;;;2.40;99.90;;;;;;4988992;28;20046;-71
2023/03/06 01:05:15;;;;;;;8.27;4.43;;;2.50;99.90;;;;;;4989817;28;20554;-71
2023/03/06 01:07:41;;;;;;;5.80;3.90;;;2.50;99.90;;;;;;4985304;28;20176;-71
2023/03/06 01:10:07;;;;;;;5.82;4.00;;;2.40;99.90;;;;;;5001699;28;20128;-71
2023/03/06 01:12:33;;;;;;;7.85;3.92;;;2.40;99.90;;;;;;4982809;28;20042;-71
2023/03/06 01:14:59;;;;;;;10.35;4.03;;;2.40;99.90;;;;;;5004792;28;20042;-71
2023/03/06 01:17:25;;;;;;;10.52;4.80;;;2.50;99.90;;;;;;5002135;28;20046;-71
2023/03/06 01:19:50;;;;;;;8.02;4.07;;;2.50;99.90;;;;;;5002264;28;20510;-71
2023/03/06 01:22:16;;;;;;;4.88;3.92;;;2.50;99.90;;;;;;4968735;28;20427;-71
2023/03/06 01:24:42;;;;;;;9.05;4.22;;;2.50;99.90;;;;;;4983810;28;20420;-71
2023/03/06 01:27:07;;;;;;;9.27;4.05;;;2.50;99.90;;;;;;4984226;28;20046;-71
2023/03/06 01:29:33;;;;;;;7.93;3.90;;;2.50;99.90;;;;;;4985283;28;20050;-71
2023/03/06 01:31:59;;;;;;;6.00;4.18;;;2.50;99.90;;;;;;4982252;28;20086;-71
2023/03/06 01:34:25;;;;;;;11.85;5.00;;;2.50;99.90;;;;;;4984864;28;20480;-71
2023/03/06 01:36:50;;;;;;;4.15;3.10;;;2.50;99.90;;;;;;4984671;28;20123;-71
2023/03/06 01:39:16;;;;;;;8.00;4.88;;;2.50;99.90;;;;;;4983923;28;20053;-71
2023/03/06 01:41:42;;;;;;;16.88;4.38;;;2.50;99.90;;;;;;4983488;28;20081;-71
2023/03/06 01:44:12;;;;;;;6.32;4.10;;;2.60;99.90;;;;;;4977544;28;20042;-71
2023/03/06 01:46:43;;;;;;;5.78;3.55;;;2.60;99.90;;;;;;4984390;28;20112;-71
2023/03/06 01:49:33;;;;;;;6.43;3.85;;;2.60;99.90;;;;;;4988707;28;20053;-71
2023/03/06 01:52:10;;;;;;;4.75;3.53;;;2.60;99.90;;;;;;4987915;28;20046;-71
2023/03/06 01:55:09;;;;;;;7.13;3.72;;;2.60;99.90;;;;;;4988349;28;20609;-71
2023/03/06 01:57:43;;;;;;;6.80;4.15;;;2.60;99.90;;;;;;4983656;28;20423;-71
2023/03/06 02:00:12;;;;;;;6.47;4.25;;;2.70;99.90;;;;;;4983700;28;20633;-71
2023/03/06 02:02:40;;;;;;;10.00;4.60;;;2.60;99.90;;;;;;4986376;28;20055;-71
2023/03/06 02:05:07;;;;;;;10.20;5.20;;;2.70;99.90;;;;;;4987812;28;20042;-71
2023/03/06 02:07:34;;;;;;;16.92;5.20;;;2.60;99.90;;;;;;4985818;28;20164;-71
2023/03/06 02:10:00;;;;;;;8.70;4.72;;;2.70;99.90;;;;;;4987927;28;20052;-71
2023/03/06 02:12:27;;;;;;;17.65;4.22;;;2.70;99.90;;;;;;4987525;28;20376;-71
2023/03/06 02:14:53;;;;;;;11.63;4.78;;;2.60;99.90;;;;;;4985127;28;20054;-71
2023/03/06 02:17:21;;;;;;;7.00;3.85;;;2.70;99.90;;;;;;4986064;28;20398;-71
2023/03/06 02:20:12;;;;;;;5.53;3.80;;;2.70;99.90;;;;;;4984098;28;20046;-71
2023/03/06 02:23:03;;;;;;;5.93;4.57;;;2.70;99.90;;;;;;4995709;28;20092;-72
2023/03/06 02:25:37;;;;;;;6.57;4.05;;;2.70;99.90;;;;;;5003946;28;20038;-72
2023/03/06 02:28:04;;;;;;;10.02;5.22;;;2.70;99.90;;;;;;4993894;28;20060;-72
2023/03/06 02:30:30;;;;;;;5.20;3.78;;;2.70;99.90;;;;;;5002958;28;20050;-72
2023/03/06 02:32:57;;;;;;;6.85;4.05;;;2.70;99.90;;;;;;5003962;28;20056;-72
2023/03/06 02:35:32;;;;;;;12.70;4.68;;;2.70;99.90;;;;;;5003589;28;20038;-72
2023/03/06 02:38:10;;;;;;;11.05;4.35;;;2.70;99.90;;;;;;5007538;28;20162;-72
2023/03/06 02:40:36;;;;;;;8.10;4.43;;;2.70;99.90;;;;;;4992865;28;20046;-72
2023/03/06 02:43:02;;;;;;;13.32;5.88;;;2.70;99.90;;;;;;4990567;28;20494;-72
2023/03/06 02:45:36;;;;;;;12.07;4.95;;;2.70;99.90;;;;;;4989701;28;20050;-72
2023/03/06 02:48:02;;;;;;;6.60;4.07;;;2.70;99.90;;;;;;5003210;28;20054;-73
2023/03/06 02:50:28;;;;;;;8.45;4.90;;;2.70;99.90;;;;;;4989009;28;20057;-73
2023/03/06 02:52:54;;;;;;;6.00;4.32;;;2.70;99.90;;;;;;4991489;28;20546;-72
2023/03/06 02:55:20;;;;;;;6.53;4.00;;;2.70;99.90;;;;;;4994219;28;20068;-72
2023/03/06 02:57:45;;;;;;;7.60;4.35;;;2.70;99.90;;;;;;5002248;28;21290;-72
2023/03/06 03:00:12;;;;;;;8.95;4.32;;;2.70;99.90;;;;;;4989627;28;20595;-72
2023/03/06 03:02:37;;;;;;;10.20;4.80;;;2.70;99.90;;;;;;4987201;28;20045;-72
2023/03/06 03:05:04;;;;;;;5.95;3.78;;;2.70;99.90;;;;;;5007216;28;20461;-72
2023/03/06 03:07:29;;;;;;;9.70;4.60;;;2.70;99.90;;;;;;4987449;28;20038;-72
2023/03/06 03:09:55;;;;;;;10.40;4.53;;;2.70;99.90;;;;;;5007742;28;20525;-72
2023/03/06 03:12:22;;;;;;;4.78;3.72;;;2.70;99.90;;;;;;4988682;28;20046;-72
2023/03/06 03:14:48;;;;;;;10.57;5.22;;;2.70;99.90;;;;;;5005790;28;20049;-72
2023/03/06 03:17:13;;;;;;;6.07;3.60;;;2.70;99.90;;;;;;4985987;28;20061;-72
2023/03/06 03:19:39;;;;;;;4.63;3.08;;;2.60;99.90;;;;;;4988210;28;20046;-72
2023/03/06 03:22:05;;;;;;;4.45;3.38;;;2.50;99.90;;;;;;5006781;28;20438;-72
2023/03/06 03:24:31;;;;;;;5.65;3.30;;;2.40;99.90;;;;;;4986166;28;20124;-72
2023/03/06 03:26:56;;;;;;;9.32;4.10;;;2.40;99.90;;;;;;5003957;28;20160;-72
2023/03/06 03:29:23;;;;;;;4.05;2.70;;;2.30;99.90;;;;;;5007139;28;20792;-72
2023/03/06 03:31:49;;;;;;;3.15;2.85;;;2.30;99.90;;;;;;5008090;28;20050;-72
2023/03/06 03:34:15;;;;;;;6.35;3.75;;;2.20;99.90;;;;;;5004252;28;20045;-72
2023/03/06 03:36:40;;;;;;;3.40;3.10;;;2.20;99.90;;;;;;4986942;28;20038;-73
2023/03/06 03:39:06;;;;;;;4.03;3.65;;;2.10;99.90;;;;;;4990107;28;20041;-72
2023/03/06 03:41:32;;;;;;;4.15;3.75;;;2.10;99.90;;;;;;4989403;28;20493;-73
2023/03/06 03:43:59;;;;;;;6.25;4.65;;;1.90;99.90;;;;;;5001122;28;20046;-72
2023/03/06 03:46:25;;;;;;;7.85;4.15;;;1.80;99.90;;;;;;4990958;28;20653;-72
2023/03/06 03:48:51;;;;;;;6.45;4.47;;;1.60;99.90;;;;;;5007504;28;20156;-72
2023/03/06 03:51:17;;;;;;;5.38;4.70;;;1.50;99.90;;;;;;5003178;28;20146;-73
2023/03/06 03:53:43;;;;;;;6.22;4.55;;;1.30;99.90;;;;;;4989788;28;20045;-72
2023/03/06 03:56:10;;;;;;;6.07;4.80;;;1.30;99.90;;;;;;5003995;28;20422;-73
2023/03/06 03:58:36;;;;;;;6.05;5.00;;;1.20;99.90;;;;;;4988320;28;20053;-72
2023/03/06 04:01:02;;;;;;;7.40;5.93;;;1.20;99.90;;;;;;4987691;28;20054;-73
2023/03/06 04:03:28;;;;;;;11.75;5.88;;;1.10;99.90;;;;;;4986732;28;20495;-72
2023/03/06 04:05:56;;;;;;;5.40;4.90;;;1.10;99.90;;;;;;4988973;28;20088;-73
2023/03/06 04:08:23;;;;;;;6.85;5.57;;;1.00;99.90;;;;;;4984854;28;20124;-73
2023/03/06 04:10:50;;;;;;;6.38;4.90;;;1.00;99.90;;;;;;4988938;28;20057;-73
2023/03/06 04:13:19;;;;;;;5.70;4.78;;;1.00;99.90;;;;;;4987947;28;20467;-73
2023/03/06 04:15:49;;;;;;;6.00;4.70;;;1.00;99.90;;;;;;4999184;28;20104;-73
2023/03/06 04:18:16;;;;;;;6.60;5.07;;;1.00;99.90;;;;;;5002808;28;20046;-73
2023/03/06 04:20:43;;;;;;;7.13;5.68;;;1.00;99.90;;;;;;5006275;28;20052;-73
2023/03/06 04:23:09;;;;;;;7.38;6.13;;;1.00;99.90;;;;;;4982930;28;20058;-73
2023/03/06 04:25:35;;;;;;;7.68;5.30;;;1.00;99.90;;;;;;5005561;28;20438;-73
2023/03/06 04:28:01;;;;;;;7.47;5.22;;;1.00;99.90;;;;;;4983833;28;20050;-73
2023/03/06 04:30:26;;;;;;;5.70;5.13;;;1.00;99.90;;;;;;5004411;28;20131;-72
2023/03/06 04:32:52;;;;;;;6.18;5.35;;;1.00;99.90;;;;;;4986141;28;20549;-72
2023/03/06 04:35:18;;;;;;;5.25;4.22;;;1.00;99.90;;;;;;5006010;28;20049;-73
2023/03/06 04:37:43;;;;;;;8.85;4.60;;;1.10;99.90;;;;;;4987018;28;20089;-73
2023/03/06 04:40:36;;;;;;;8.15;5.07;;;1.00;99.90;;;;;;4986427;28;20052;-72
2023/03/06 04:43:02;;;;;;;4.70;4.05;;;1.10;99.90;;;;;;4984641;28;20061;-73
2023/03/06 04:45:29;;;;;;;5.20;4.20;;;1.00;99.90;;;;;;4985056;28;20053;-72
2023/03/06 04:47:55;;;;;;;6.07;4.07;;;1.00;99.90;;;;;;4984420;28;20084;-72
2023/03/06 04:50:22;;;;;;;5.07;3.97;;;1.00;99.90;;;;;;4986951;28;20057;-72
2023/03/06 04:52:48;;;;;;;5.38;4.03;;;1.00;99.90;;;;;;5004072;28;20128;-72
2023/03/06 04:55:16;;;;;;;4.07;3.25;;;1.00;99.90;;;;;;4986810;28;20138;-73
2023/03/06 04:57:44;;;;;;;5.07;3.47;;;1.00;99.90;;;;;;4986304;28;20049;-73
2023/03/06 05:00:23;;;;;;;3.40;3.10;;;1.10;99.90;;;;;;4989787;28;20070;-73
2023/03/06 05:02:50;;;;;;;5.20;4.07;;;1.20;99.90;;;;;;5006090;28;20058;-73
2023/03/06 05:05:17;;;;;;;3.55;3.08;;;1.20;99.90;;;;;;5000638;28;20392;-73
2023/03/06 05:07:43;;;;;;;5.07;3.38;;;1.30;99.90;;;;;;5004434;28;20042;-73
2023/03/06 05:10:14;;;;;;;4.53;3.22;;;1.30;99.90;;;;;;4985163;28;20077;-72
2023/03/06 05:12:39;;;;;;;5.80;3.50;;;1.40;99.90;;;;;;4988531;28;20124;-73
2023/03/06 05:15:06;;;;;;;4.97;3.50;;;1.40;99.90;;;;;;5005646;28;20180;-72
2023/03/06 05:17:32;;;;;;;4.55;3.67;;;1.40;99.90;;;;;;5003957;28;20894;-72
2023/03/06 05:19:58;;;;;;;3.90;3.35;;;1.40;99.90;;;;;;4986991;28;20054;-72
2023/03/06 05:22:24;;;;;;;7.05;4.30;;;1.50;99.90;;;;;;5009564;28;20056;-72
2023/03/06 05:24:49;;;;;;;4.05;3.47;;;1.50;99.90;;;;;;5002711;28;20132;-72
2023/03/06 05:27:15;;;;;;;3.38;3.05;;;1.50;99.90;;;;;;5006709;28;20038;-72
2023/03/06 05:29:41;;;;;;;3.58;3.25;;;1.50;99.90;;;;;;5008192;28;20041;-72
2023/03/06 05:32:07;;;;;;;5.22;4.18;;;1.50;99.90;;;;;;5007121;28;20125;-72
2023/03/06 05:34:33;;;;;;;3.42;3.13;;;1.50;99.90;;;;;;4991594;28;20046;-72
2023/03/06 05:37:00;;;;;;;3.55;3.25;;;1.50;99.90;;;;;;4997692;28;20041;-72
2023/03/06 05:39:27;;;;;;;3.23;2.90;;;1.50;99.90;;;;;;4996519;28;20049;-73
2023/03/06 05:41:55;;;;;;;3.40;3.08;;;1.50;99.90;;;;;;4992331;28;20124;-73
2023/03/06 05:44:22;;;;;;;3.83;3.20;;;1.50;99.90;;;;;;5010348;28;20041;-73
2023/03/06 05:46:49;;;;;;;4.40;3.42;;;1.60;99.90;;;;;;5004558;28;20057;-73
2023/03/06 05:49:14;;;;;;;3.67;3.10;;;1.60;99.90;;;;;;5010741;28;20145;-72
2023/03/06 05:51:40;;;;;;;4.80;3.33;;;1.50;99.90;;;;;;5000205;28;20542;-72
2023/03/06 05:54:06;;;;;;;4.00;3.22;;;1.50;99.90;;;;;;5011192;28;20406;-72
2023/03/06 05:56:31;;;;;;;3.97;3.40;;;1.60;99.90;;;;;;4998727;28;20483;-72
2023/03/06 05:58:57;;;;;;;4.03;3.53;;;1.50;99.90;;;;;;4998846;28;20089;-72
2023/03/06 06:01:24;;;;;;;4.30;3.67;;;1.60;99.90;;;;;;4994786;28;20084;-72
2023/03/06 06:03:50;;;;;;;3.60;3.28;;;1.60;99.90;;;;;;5010049;28;20081;-72
2023/03/06 06:06:16;;;;;;;5.05;3.83;;;1.60;99.90;;;;;;5010152;28;20534;-72
2023/03/06 06:08:42;;;;;;;4.40;3.08;;;1.50;99.90;;;;;;5004317;28;20049;-72
2023/03/06 06:11:08;;;;;;;8.02;4.03;;;1.60;99.90;;;;;;4996667;28;20125;-72
2023/03/06 06:13:35;;;;;;;8.43;4.57;;;1.60;99.90;;;;;;4995932;28;20470;-72
2023/03/06 06:16:10;;;;;;;4.18;3.53;;;1.60;99.90;;;;;;5007705;28;20077;-72
2023/03/06 06:18:36;;;;;;;4.82;4.15;;;1.60;99.90;;;;;;4987185;28;20112;-72
2023/03/06 06:21:06;;;;;;;4.30;3.47;;;1.60;99.90;;;;;;4990829;28;20042;-72
2023/03/06 06:23:32;;;;;;;6.15;4.10;;;1.60;99.90;;;;;;4981580;28;20201;-72
2023/03/06 06:26:00;;;;;;;4.80;3.65;;;1.60;99.90;;;;;;4995399;28;20125;-72
2023/03/06 06:28:27;;;;;;;4.43;3.78;;;1.60;99.90;;;;;;4999939;28;20115;-72
2023/03/06 06:30:52;;;;;;;3.75;3.38;;;1.60;99.90;;;;;;4995058;28;20096;-72
2023/03/06 06:33:18;;;;;;;6.22;4.05;;;1.60;99.90;;;;;;5009997;28;20042;-72
2023/03/06 06:35:44;;;;;;;5.90;3.15;;;1.60;99.90;;;;;;5004174;28;20495;-72
2023/03/06 06:38:10;;;;;;;5.22;3.75;;;1.60;99.90;;;;;;4993554;28;20150;-72
2023/03/06 06:40:36;;;;;;;3.22;2.92;;;1.60;99.90;;;;;;4991721;28;20038;-72
2023/03/06 06:43:02;;;;;;;4.30;3.25;;;1.60;99.90;;;;;;4975289;28;20045;-72
2023/03/06 06:45:27;;;;;;;3.15;2.85;;;1.60;99.90;;;;;;4990875;28;20042;-73
2023/03/06 06:47:53;;;;;;;4.30;3.90;;;1.60;99.90;;;;;;4997040;28;20112;-72
2023/03/06 06:50:19;;;;;;;4.38;3.97;;;1.60;99.90;;;;;;5008768;28;20092;-72
2023/03/06 06:52:45;;;;;;;4.47;3.33;;;1.60;99.90;;;;;;5006802;28;20069;-72
2023/03/06 06:55:11;;;;;;;4.75;3.65;;;1.60;99.90;;;;;;5002170;28;20137;-72
2023/03/06 06:57:37;;;;;;;4.65;3.55;;;1.60;99.90;;;;;;4974909;28;20041;-72
2023/03/06 07:00:04;;;;;;;4.00;3.60;;;1.60;99.90;;;;;;4990459;28;20052;-72
2023/03/06 07:02:31;;;;;;;3.92;3.30;;;1.60;99.90;;;;;;4986991;28;20069;-72
2023/03/06 07:04:57;;;;;;;4.60;3.10;;;1.60;99.90;;;;;;4987605;28;20042;-72
2023/03/06 07:07:23;;;;;;;7.82;3.78;;;1.60;99.90;;;;;;4985605;28;20167;-72
2023/03/06 07:09:49;;;;;;;3.83;3.33;;;1.60;99.90;;;;;;4990866;28;20426;-71
2023/03/06 07:12:15;;;;;;;4.95;3.75;;;1.70;99.90;;;;;;4978808;28;20209;-72
2023/03/06 07:14:41;;;;;;;4.53;3.60;;;1.70;99.90;;;;;;4978893;28;20038;-72
2023/03/06 07:17:10;;;;;;;5.10;4.03;;;1.70;99.90;;;;;;4985591;28;20562;-72
2023/03/06 07:19:35;;;;;;;;;;;1.70;99.90;;;;;;4999287;28;20036;-71
2023/03/06 07:22:02;;;;;;;7.68;4.03;;;1.70;99.90;;;;;;4986903;28;19925;-72
2023/03/06 07:24:28;;;;;;;4.18;3.20;;;1.70;99.90;;;;;;4992694;28;20784;-71
2023/03/06 07:26:54;;;;;;;4.10;3.15;;;1.80;99.90;;;;;;4989761;28;20096;-71
2023/03/06 07:29:19;;;;;;;7.25;3.38;;;1.80;99.90;;;;;;4989288;28;20201;-72
2023/03/06 07:31:46;;;;;;;4.00;3.40;;;1.80;99.90;;;;;;4984369;28;20057;-72
2023/03/06 07:34:13;;;;;;;4.25;3.20;;;2.10;99.90;;;;;;4989830;28;20053;-72
2023/03/06 07:36:39;;;;;;;4.13;3.63;;;2.50;99.90;;;;;;5008618;28;20050;-72
2023/03/06 07:39:06;;;;;;;5.50;4.55;;;2.80;99.90;;;;;;5009566;28;20057;-71
2023/03/06 07:41:32;;;;;;;6.90;4.80;;;2.90;99.90;;;;;;4977886;28;20120;-71
2023/03/06 07:43:58;;;;;;;7.15;4.60;;;3.00;99.90;;;;;;4985294;28;20156;-72
2023/03/06 07:46:24;;;;;;;4.63;4.00;;;3.00;99.90;;;;;;4986000;28;20046;-72
2023/03/06 07:48:50;;;;;;;5.05;2.95;;;3.00;99.90;;;;;;4987412;28;20050;-72
2023/03/06 07:51:18;;;;;;;6.03;3.13;;;2.90;99.90;;;;;;4990725;28;20041;-72
2023/03/06 07:53:44;;;;;;;4.05;2.80;;;2.90;99.90;;;;;;4990920;28;20053;-72
2023/03/06 07:56:10;;;;;;;3.33;2.72;;;2.90;99.90;;;;;;5003972;28;20045;-71
2023/03/06 07:58:38;;;;;;;3.53;3.22;;;3.00;99.90;;;;;;4973128;28;20038;-72
2023/03/06 08:01:18;;;;;;;3.92;3.03;;;3.00;99.90;;;;;;4987373;28;20095;-72
2023/03/06 08:03:44;;;;;;;4.63;3.25;;;3.00;99.90;;;;;;5001022;28;20116;-71
2023/03/06 08:06:16;;;;;;;3.30;2.72;;;3.00;99.90;;;;;;4988876;28;20046;-72
2023/03/06 08:08:44;;;;;;;4.40;3.28;;;3.00;99.90;;;;;;5006219;28;20095;-72
2023/03/06 08:11:11;;;;;;;3.90;2.78;;;3.10;99.90;;;;;;5008198;28;20042;-72
2023/03/06 08:13:38;;;;;;;8.00;2.80;;;3.10;99.90;;;;;;5007558;28;20041;-72
2023/03/06 08:16:04;;;;;;;3.17;2.03;;;3.10;99.90;;;;;;4995842;28;20043;-72
2023/03/06 08:18:30;;;;;;;4.85;2.83;;;3.20;99.90;;;;;;5002979;28;20042;-72
2023/03/06 08:21:07;;;;;;;3.38;2.47;;;3.20;99.90;;;;;;5008234;28;20038;-72
2023/03/06 08:23:35;;;;;;;2.92;2.25;;;3.20;99.90;;;;;;5007109;28;20069;-72
2023/03/06 08:26:06;;;;;;;4.07;2.92;;;3.20;99.90;;;;;;5002589;28;20077;-72
2023/03/06 08:28:32;;;;;;;2.95;2.60;;;3.20;99.90;;;;;;5003379;28;20112;-71
2023/03/06 08:31:07;;;;;;;3.92;2.65;;;3.10;99.90;;;;;;5005614;28;20088;-72
2023/03/06 08:33:32;;;;;;;4.60;2.25;;;3.20;99.90;;;;;;5005279;28;20165;-72
2023/03/06 08:35:58;;;;;;;3.33;2.65;;;3.20;99.90;;;;;;5001627;28;20125;-71
2023/03/06 08:38:24;;;;;;;4.18;3.45;;;3.20;99.90;;;;;;5005691;28;20453;-72
2023/03/06 08:40:49;;;;;;;4.20;2.88;;;3.20;99.90;;;;;;4991181;28;20161;-73
2023/03/06 08:43:15;;;;;;;4.85;2.92;;;3.20;99.90;;;;;;4990188;28;20078;-72
2023/03/06 08:45:41;;;;;;;6.45;4.72;;;3.20;99.90;;;;;;5004584;28;20050;-74
2023/03/06 08:48:06;;;;;;;5.40;4.28;;;3.30;99.90;;;;;;4988756;28;20042;-75
2023/03/06 08:50:32;;;;;;;4.80;2.92;;;3.40;99.90;;;;;;4987295;28;20169;-75
2023/03/06 08:52:58;;;;;;;5.15;3.42;;;3.40;99.90;;;;;;4990617;28;20410;-75
2023/03/06 08:55:23;;;;;;;4.32;3.42;;;3.50;99.90;;;;;;5006635;28;20585;-74
2023/03/06 08:57:49;;;;;;;5.45;3.30;;;3.50;99.90;;;;;;4992480;28;20554;-73
2023/03/06 09:00:15;;;;;;;4.03;2.17;;;3.60;99.90;;;;;;4994724;28;20054;-73
2023/03/06 09:02:41;;;;;;;2.53;2.33;;;3.60;99.90;;;;;;4992522;28;20042;-74
2023/03/06 09:05:08;;;;;;;7.55;2.80;;;3.70;99.90;;;;;;4989047;28;20113;-74
2023/03/06 09:07:34;;;;;;;5.13;3.65;;;3.80;99.90;;;;;;4992383;28;20610;-74
2023/03/06 09:10:00;;;;;;;5.70;3.65;;;3.90;99.90;;;;;;4993407;28;20046;-74
2023/03/06 09:12:26;;;;;;;3.15;2.67;;;4.00;99.90;;;;;;4993496;28;20045;-74
2023/03/06 09:14:51;;;;;;;3.30;2.90;;;4.10;99.90;;;;;;4993018;28;20525;-74
2023/03/06 09:17:17;;;;;;;5.70;3.10;;;4.20;99.90;;;;;;4994250;28;20049;-74
2023/03/06 09:19:43;;;;;;;3.72;3.03;;;4.40;99.90;;;;;;4990404;28;20073;-74
2023/03/06 09:22:09;;;;;;;4.97;2.75;;;4.50;99.90;;;;;;4999512;28;20064;-74
2023/03/06 09:24:35;;;;;;;4.40;2.85;;;4.70;99.90;;;;;;5009233;28;20112;-74
2023/03/06 09:27:01;;;;;;;8.63;3.10;;;4.80;99.90;;;;;;5010671;28;20046;-74
2023/03/06 09:29:26;;;;;;;3.60;2.10;;;4.90;99.90;;;;;;5010417;28;20052;-74
2023/03/06 09:31:52;;;;;;;3.03;2.28;;;5.10;99.90;;;;;;5006465;28;20653;-74
2023/03/06 09:34:18;;;;;;;4.60;2.25;;;5.30;99.90;;;;;;4997209;28;20144;-73
2023/03/06 09:36:44;;;;;;;5.20;2.78;;;5.40;99.90;;;;;;4999973;28;20080;-74
2023/03/06 09:39:10;;;;;;;4.63;2.80;;;5.50;99.90;;;;;;5000312;28;20398;-74
2023/03/06 09:41:39;;;;;;;7.60;2.95;;;5.40;99.90;;;;;;5009718;28;20053;-74
2023/03/06 09:44:15;;;;;;;3.78;2.03;;;5.60;99.90;;;;;;4997043;28;20042;-74
2023/03/06 09:46:46;;;;;;;15.82;2.95;;;5.70;99.90;;;;;;5002905;28;20061;-73
2023/03/06 09:49:36;;;;;;;4.65;2.65;;;5.80;99.90;;;;;;4998768;28;20046;-73
2023/03/06 09:52:17;;;;;;;5.30;2.85;;;6.00;99.90;;;;;;5007193;28;20487;-73
2023/03/06 09:54:45;;;;;;;3.70;2.50;;;6.10;99.90;;;;;;4996964;28;20041;-73
2023/03/06 09:57:37;;;;;;;;;;;6.10;99.90;;;;;;4994713;28;20238;-73
2023/03/06 10:00:19;;;;;;;3.28;2.20;;;6.10;99.90;;;;;;5004478;28;19928;-73
2023/03/06 10:03:17;;;;;;;4.45;2.25;;;6.20;99.90;;;;;;4981206;28;20050;-72
2023/03/06 10:05:57;;;;;;;8.55;2.25;;;6.30;99.90;;;;;;4969436;28;20073;-72
2023/03/06 10:08:25;;;;;;;3.40;1.85;;;6.40;99.90;;;;;;4993110;28;20069;-72
2023/03/06 10:11:04;;;;;;;4.85;3.53;;;6.40;99.90;;;;;;4992854;28;20069;-72
2023/03/06 10:13:33;;;;;;;5.05;2.60;;;6.50;99.90;;;;;;4987255;28;20077;-72
2023/03/06 10:16:10;;;;;;;6.30;2.03;;;6.60;99.90;;;;;;4991845;28;20085;-72
2023/03/06 10:18:37;;;;;;;3.75;2.28;;;6.70;99.90;;;;;;4993425;28;20088;-73
2023/03/06 10:21:20;;;;;;;10.93;3.55;;;6.80;99.90;;;;;;4989730;28;20141;-73
2023/03/06 10:24:16;;;;;;;12.63;6.55;;;6.90;99.90;;;;;;4991663;28;20049;-71
2023/03/06 10:26:50;;;;;;;6.50;2.75;;;7.10;99.90;;;;;;5003669;28;20041;-72
2023/03/06 10:29:51;;;;;;;12.23;6.22;;;7.30;99.90;;;;;;5007551;28;20049;-72
2023/03/06 10:32:25;;;;;;;4.97;1.88;;;7.60;99.90;;;;;;4985899;28;20052;-72
2023/03/06 10:34:52;;;;;;;2.63;1.70;;;7.40;99.90;;;;;;4990879;28;20459;-72
2023/03/06 10:37:20;;;;;;;4.75;1.20;;;7.20;99.90;;;;;;4983449;28;20046;-71
2023/03/06 10:39:49;;;;;;;;;;;7.20;99.90;;;;;;4994768;28;20188;-71
2023/03/06 10:42:15;;;;;;;4.13;1.25;;;7.20;99.90;;;;;;4989561;28;19928;-72
2023/03/06 10:44:41;;;;;;;3.92;1.20;;;7.40;99.90;;;;;;4993480;28;20050;-71
2023/03/06 10:47:45;;;;;;;3.67;1.42;;;7.70;99.90;;;;;;4993109;28;20092;-72
2023/03/06 10:50:23;;;;;;;5.30;1.67;;;8.00;99.90;;;;;;4930435;29;20055;-72
2023/03/06 10:52:59;;;;;;;2.72;0.93;;;8.20;99.90;;;;;;4948238;28;20142;-71
2023/03/06 10:55:28;;;;;;;4.43;1.48;;;8.40;99.90;;;;;;4985240;28;20076;-71
2023/03/06 10:57:54;;;;;;;3.75;1.10;;;8.50;99.90;;;;;;4997397;28;20050;-71
2023/03/06 11:00:26;;;;;;;2.95;1.30;;;8.40;99.90;;;;;;4987041;28;20618;-71
2023/03/06 11:03:16;;;;;;;5.80;1.00;;;8.50;99.90;;;;;;4986822;28;20408;-71
2023/03/06 11:06:09;;;;;;;4.63;1.45;;;8.80;99.90;;;;;;4993984;28;20050;-72
2023/03/06 11:08:35;;;;;;;2.85;1.23;;;8.90;98.40;;;;;;4995156;28;20037;-72
2023/03/06 11:11:14;;;;;;;3.85;1.48;;;9.00;99.90;;;;;;4993614;28;20387;-72
2023/03/06 11:13:42;;;;;;;2.53;1.48;;;9.20;99.90;;;;;;4992980;28;20144;-72
2023/03/06 11:16:31;;;;;;;3.20;1.48;;;9.30;99.90;;;;;;5004834;28;20434;-71
2023/03/06 11:19:04;;;;;;;3.03;1.42;;;9.30;99.90;;;;;;5005475;28;20049;-72
2023/03/06 11:21:33;;;;;;;3.58;1.30;;;9.50;99.90;;;;;;4989599;28;20049;-72
2023/03/06 11:24:22;;;;;;;5.55;1.60;;;9.80;99.90;;;;;;4988605;28;20065;-72
2023/03/06 11:26:57;;;;;;;1.10;1.00;;;10.10;99.90;;;;;;4982397;28;20061;-72
2023/03/06 11:29:47;;;;;;;4.00;1.27;;;10.40;99.90;;;;;;4989033;28;20107;-72
2023/03/06 11:32:21;;;;;;;1.80;0.75;;;10.50;99.90;;;;;;4983703;28;20050;-72
2023/03/06 11:34:55;;;;;;;2.90;1.05;;;10.50;99.90;;;;;;4989814;28;20136;-72
2023/03/06 11:37:48;;;;;;;2.95;0.80;;;10.40;99.90;;;;;;4988600;28;20049;-72
2023/03/06 11:40:22;;;;;;;1.65;1.13;;;10.40;99.90;;;;;;4989107;28;20065;-71
2023/03/06 11:43:10;;;;;;;2.15;0.75;;;10.60;99.90;;;;;;5002516;28;20045;-72
2023/03/06 11:45:43;;;;;;;2.45;0.93;;;10.70;99.90;;;;;;4992882;28;20049;-72
2023/03/06 11:48:16;;;;;;;1.05;0.90;;;10.70;99.90;;;;;;4988561;28;20157;-72
2023/03/06 11:50:49;;;;;;;1.60;1.25;;;10.70;97.70;;;;;;4988770;28;20053;-72
2023/03/06 11:53:47;;;;;;;3.97;1.95;;;10.60;99.90;;;;;;4988110;28;20054;-72
2023/03/06 11:56:48;;;;;;;2.50;2.30;;;10.50;99.90;;;;;;4958062;28;20062;-71
2023/03/06 11:59:23;;;;;;;3.00;1.60;;;10.30;87.20;;;;;;4991017;28;20105;-72
2023/03/06 12:01:54;;;;;;;1.75;1.20;;;10.20;93.40;;;;;;4991350;28;20050;-72
2023/03/06 12:04:45;;;;;;;1.90;0.90;;;10.10;92.50;;;;;;4989047;28;20085;-72
2023/03/06 12:07:22;;;;;;;3.78;1.20;;;10.00;94.70;;;;;;4988970;28;20050;-72
2023/03/06 12:10:08;;;;;;;;;;;9.90;99.90;;;;;;4989119;28;20080;-71
2023/03/06 12:12:55;;;;;;;0.75;0.75;;;9.80;99.90;;;;;;4987865;28;19925;-72
2023/03/06 12:15:51;;;;;;;1.88;1.02;;;9.70;99.90;;;;;;4983692;28;20112;-72
2023/03/06 12:18:22;;;;;;;3.42;1.58;;;9.50;97.10;;;;;;4983581;28;20046;-72
2023/03/06 12:20:58;;;;;;;3.05;1.27;;;9.30;99.90;;;;;;4990260;28;20041;-71
2023/03/06 12:23:43;;;;;;;1.25;1.00;;;9.10;99.90;;;;;;4984547;28;20054;-72
2023/03/06 12:26:20;;;;;;;2.13;0.88;;;8.90;99.90;;;;;;4988383;28;20052;-72
2023/03/06 12:29:10;;;;;;;4.65;1.58;;;8.70;99.90;;;;;;5003343;28;20589;-71
2023/03/06 12:31:50;;;;;;;4.07;1.38;;;8.60;99.90;;;;;;4989483;28;20129;-71
2023/03/06 12:34:22;;;;;;;1.75;1.60;;;8.50;99.90;;;;;;5004077;28;20049;-71
2023/03/06 12:37:03;;;;;;;6.88;2.05;;;8.40;99.90;;;;;;4988732;28;20050;-72
2023/03/06 12:39:47;;;;;;;3.70;2.47;;;8.30;99.90;;;;;;4984180;28;20514;-71
2023/03/06 12:42:41;;;;;;;7.00;1.92;;;8.30;99.90;;;;;;4980419;28;20435;-72
2023/03/06 12:45:09;;;;;;;4.65;2.35;;;8.40;99.90;;;;;;4983490;28;20061;-71
2023/03/06 12:47:41;;;;;;;3.05;1.60;;;8.40;99.90;;;;;;4989294;28;20042;-71
2023/03/06 12:50:37;;;;;;;3.45;1.30;;;8.40;99.90;;;;;;4990259;28;20045;-71
2023/03/06 12:53:06;;;;;;;4.43;1.20;;;8.40;99.90;;;;;;4977348;28;20065;-71
2023/03/06 12:55:42;;;;;;;5.72;1.67;;;8.20;99.90;;;;;;4988734;28;20570;-71
2023/03/06 12:58:27;;;;;;;2.83;1.23;;;8.20;99.90;;;;;;4987499;28;20133;-72
2023/03/06 13:01:26;;;;;;;2.03;1.20;;;8.10;98.20;;;;;;4983057;28;20049;-71
2023/03/06 13:04:15;;;;;;;1.48;1.35;;;8.00;99.90;;;;;;4985478;28;20053;-72
2023/03/06 13:06:59;;;;;;;5.15;1.98;;;7.90;99.90;;;;;;4987806;28;20061;-71
2023/03/06 13:09:49;;;;;;;2.92;1.27;;;7.80;99.90;;;;;;4987212;28;20049;-71
2023/03/06 13:12:42;;;;;;;2.35;1.25;;;7.70;99.90;;;;;;4985961;28;20598;-71
2023/03/06 13:15:39;;;;;;;4.70;2.95;;;7.70;99.90;;;;;;4982369;28;20146;-71